createdAt,value
2022-11-01T00:01:58.863Z,9.73
2022-11-01T00:04:26.055Z,9.75
2022-11-01T00:06:52.472Z,9.87
2022-11-01T00:09:18.958Z,9.81
2022-11-01T00:11:45.297Z,9.80
2022-11-01T00:14:16.038Z,9.84
2022-11-01T00:16:43.035Z,9.87
2022-11-01T00:19:09.915Z,9.91
2022-11-01T00:21:36.765Z,9.97
2022-11-01T00:24:03.474Z,9.99
2022-11-01T00:26:29.864Z,9.93
2022-11-01T00:28:56.208Z,9.95
2022-11-01T00:31:23.248Z,9.96
2022-11-01T00:33:49.645Z,10.10
2022-11-01T00:36:16.040Z,10.10
2022-11-01T00:38:42.408Z,10.06
2022-11-01T00:41:09.064Z,9.92
2022-11-01T00:43:36.349Z,9.84
2022-11-01T00:46:03.612Z,9.55
2022-11-01T00:48:30.482Z,9.26
2022-11-01T00:50:56.929Z,9.19
2022-11-01T00:53:23.306Z,9.16
2022-11-01T00:55:49.810Z,9.23
2022-11-01T00:58:16.208Z,9.26
2022-11-01T01:00:42.616Z,9.24
2022-11-01T01:03:09.124Z,9.23
2022-11-01T01:05:35.953Z,9.38
2022-11-01T01:08:02.473Z,9.52
2022-11-01T01:10:29.027Z,9.52
2022-11-01T01:12:55.376Z,9.60
2022-11-01T01:15:21.817Z,9.53
2022-11-01T01:17:48.239Z,9.52
2022-11-01T01:20:14.869Z,9.65
2022-11-01T01:22:42.460Z,9.67
2022-11-01T01:25:10.117Z,9.65
2022-11-01T01:27:36.507Z,9.61
2022-11-01T01:30:04.035Z,9.57
2022-11-01T01:32:30.750Z,9.51
2022-11-01T01:34:57.119Z,9.54
2022-11-01T01:37:23.466Z,9.56
2022-11-01T01:39:49.861Z,9.55
2022-11-01T01:42:19.421Z,9.47
2022-11-01T01:44:51.595Z,9.38
2022-11-01T01:47:21.163Z,9.31
2022-11-01T01:52:28.396Z,9.09
2022-11-01T01:54:55.050Z,8.91
2022-11-01T01:57:21.487Z,8.84
2022-11-01T01:59:48.328Z,8.81
2022-11-01T02:02:15.000Z,8.87
2022-11-01T02:04:45.615Z,8.85
2022-11-01T02:07:12.473Z,8.75
2022-11-01T02:09:39.630Z,8.67
2022-11-01T02:12:06.745Z,8.68
2022-11-01T02:14:33.316Z,8.56
2022-11-01T02:17:52.355Z,8.54
2022-11-01T02:20:42.946Z,8.47
2022-11-01T02:23:45.688Z,8.46
2022-11-01T02:26:44.384Z,8.45
2022-11-01T02:29:35.497Z,8.37
2022-11-01T02:32:19.713Z,8.33
2022-11-01T02:34:58.281Z,8.26
2022-11-01T02:37:42.340Z,8.25
2022-11-01T02:40:16.818Z,8.21
2022-11-01T02:42:46.409Z,8.13
2022-11-01T02:45:28.890Z,8.08
2022-11-01T02:48:00.283Z,8.03
2022-11-01T02:50:28.513Z,8.05
2022-11-01T02:52:55.225Z,8.00
2022-11-01T02:55:30.427Z,8.07
2022-11-01T02:58:00.104Z,7.98
2022-11-01T03:00:32.871Z,7.99
2022-11-01T03:03:21.141Z,7.95
2022-11-01T03:06:05.881Z,7.99
2022-11-01T03:08:37.783Z,7.96
2022-11-01T03:11:14.222Z,7.84
2022-11-01T03:13:43.763Z,7.93
2022-11-01T03:16:34.147Z,7.86
2022-11-01T03:19:15.220Z,7.90
2022-11-01T03:21:47.357Z,7.94
2022-11-01T03:24:41.841Z,7.91
2022-11-01T03:27:15.422Z,7.87
2022-11-01T03:29:47.294Z,7.91
2022-11-01T03:32:16.866Z,7.96
2022-11-01T03:34:44.162Z,8.01
2022-11-01T03:37:12.676Z,7.99
2022-11-01T03:39:46.674Z,8.01
2022-11-01T03:42:21.169Z,7.96
2022-11-01T03:44:52.666Z,7.97
2022-11-01T03:47:19.378Z,7.86
2022-11-01T03:49:45.745Z,7.78
2022-11-01T03:52:12.222Z,7.79
2022-11-01T03:54:38.544Z,7.85
2022-11-01T03:57:05.010Z,7.88
2022-11-01T03:59:31.390Z,7.90
2022-11-01T04:01:57.901Z,7.85
2022-11-01T04:04:24.509Z,7.88
2022-11-01T04:06:51.282Z,7.89
2022-11-01T04:09:17.779Z,7.95
2022-11-01T04:11:44.185Z,7.86
2022-11-01T04:14:29.004Z,7.85
2022-11-01T04:17:21.325Z,7.83
2022-11-01T04:20:06.085Z,7.92
2022-11-01T04:22:32.550Z,7.85
2022-11-01T04:24:58.922Z,7.82
2022-11-01T04:27:25.237Z,7.73
2022-11-01T04:29:51.564Z,7.77
2022-11-01T04:32:17.920Z,7.58
2022-11-01T04:34:44.454Z,7.41
2022-11-01T04:37:11.978Z,7.45
2022-11-01T04:39:38.393Z,7.43
2022-11-01T04:42:05.300Z,7.39
2022-11-01T04:44:31.764Z,7.34
2022-11-01T04:46:58.118Z,7.30
2022-11-01T04:49:24.431Z,7.29
2022-11-01T04:51:50.740Z,7.36
2022-11-01T04:54:17.136Z,7.38
2022-11-01T04:56:43.497Z,7.38
2022-11-01T04:59:09.890Z,7.42
2022-11-01T05:01:36.409Z,7.31
2022-11-01T05:04:03.042Z,7.38
2022-11-01T05:06:29.864Z,7.36
2022-11-01T05:08:56.180Z,7.35
2022-11-01T05:11:25.483Z,7.29
2022-11-01T05:13:52.248Z,7.27
2022-11-01T05:16:20.047Z,7.32
2022-11-01T05:18:47.639Z,7.20
2022-11-01T05:21:14.076Z,7.22
2022-11-01T05:23:40.703Z,7.19
2022-11-01T05:26:07.271Z,7.27
2022-11-01T05:28:34.565Z,7.15
2022-11-01T05:31:00.993Z,7.20
2022-11-01T05:33:27.368Z,7.21
2022-11-01T05:35:53.907Z,7.22
2022-11-01T05:38:20.347Z,7.26
2022-11-01T05:40:46.838Z,7.30
2022-11-01T05:43:13.266Z,7.28
2022-11-01T05:45:39.680Z,7.25
2022-11-01T05:48:06.244Z,7.25
2022-11-01T05:50:32.644Z,7.27
2022-11-01T05:53:08.555Z,7.28
2022-11-01T05:55:36.150Z,7.24
2022-11-01T05:58:03.254Z,7.22
2022-11-01T06:00:29.628Z,7.26
2022-11-01T06:02:57.909Z,7.21
2022-11-01T06:05:25.015Z,7.15
2022-11-01T06:07:51.369Z,7.28
2022-11-01T06:10:17.789Z,7.25
2022-11-01T06:12:44.234Z,7.30
2022-11-01T06:15:11.076Z,7.30
2022-11-01T06:17:37.466Z,7.34
2022-11-01T06:20:04.271Z,7.25
2022-11-01T06:22:30.602Z,7.32
2022-11-01T06:24:56.958Z,7.27
2022-11-01T06:27:23.402Z,7.33
2022-11-01T06:29:49.743Z,7.35
2022-11-01T06:32:16.129Z,7.33
2022-11-01T06:34:44.966Z,7.43
2022-11-01T06:37:11.721Z,7.47
2022-11-01T06:39:38.153Z,7.55
2022-11-01T06:42:04.916Z,7.54
2022-11-01T06:44:31.334Z,7.65
2022-11-01T06:46:57.700Z,7.62
2022-11-01T06:49:24.151Z,7.73
2022-11-01T06:51:50.515Z,7.80
2022-11-01T06:54:16.893Z,7.85
2022-11-01T06:56:43.224Z,7.86
2022-11-01T06:59:09.703Z,7.93
2022-11-01T07:01:36.152Z,7.93
2022-11-01T07:04:02.701Z,8.00
2022-11-01T07:06:30.836Z,8.06
2022-11-01T07:08:59.208Z,8.05
2022-11-01T07:11:30.947Z,7.98
2022-11-01T07:13:59.192Z,7.97
2022-11-01T07:16:26.269Z,7.94
2022-11-01T07:18:52.644Z,8.11
2022-11-01T07:21:19.383Z,8.23
2022-11-01T07:23:45.750Z,8.31
2022-11-01T07:26:12.267Z,8.37
2022-11-01T07:28:39.490Z,8.27
2022-11-01T07:31:06.270Z,8.29
2022-11-01T07:33:32.752Z,8.49
2022-11-01T07:36:00.765Z,8.48
2022-11-01T07:38:27.289Z,8.49
2022-11-01T07:40:54.613Z,8.52
2022-11-01T07:43:21.354Z,8.48
2022-11-01T07:45:48.361Z,8.47
2022-11-01T07:48:18.405Z,8.48
2022-11-01T07:50:45.850Z,8.46
2022-11-01T07:53:14.872Z,8.43
2022-11-01T07:55:42.101Z,8.24
2022-11-01T07:58:09.656Z,8.38
2022-11-01T08:00:36.905Z,8.36
2022-11-01T08:03:19.125Z,8.43
2022-11-01T08:05:47.256Z,8.25
2022-11-01T08:08:14.985Z,8.42
2022-11-01T08:10:42.369Z,8.38
2022-11-01T08:13:23.284Z,8.33
2022-11-01T08:15:51.995Z,8.32
2022-11-01T08:18:22.248Z,8.34
2022-11-01T08:20:49.300Z,8.45
2022-11-01T08:23:15.982Z,8.41
2022-11-01T08:25:42.692Z,8.40
2022-11-01T08:28:15.193Z,8.46
2022-11-01T08:30:43.670Z,8.54
2022-11-01T08:33:10.542Z,8.48
2022-11-01T08:35:37.177Z,8.61
2022-11-01T08:38:03.967Z,8.71
2022-11-01T08:40:32.156Z,8.76
2022-11-01T08:42:58.897Z,8.86
2022-11-01T08:45:26.050Z,9.00
2022-11-01T08:48:00.201Z,8.90
2022-11-01T08:50:27.350Z,9.04
2022-11-01T08:52:53.834Z,9.05
2022-11-01T08:55:21.422Z,9.10
2022-11-01T08:57:48.343Z,8.95
2022-11-01T09:00:16.673Z,9.10
2022-11-01T09:02:43.169Z,9.31
2022-11-01T09:05:09.589Z,9.38
2022-11-01T09:07:36.788Z,9.52
2022-11-01T09:10:04.230Z,9.56
2022-11-01T09:12:30.675Z,9.66
2022-11-01T09:14:57.174Z,9.65
2022-11-01T09:17:23.606Z,9.64
2022-11-01T09:19:50.059Z,9.74
2022-11-01T09:22:16.404Z,9.80
2022-11-01T09:24:42.764Z,9.91
2022-11-01T09:27:09.609Z,9.96
2022-11-01T09:29:35.991Z,9.77
2022-11-01T09:32:02.421Z,9.81
2022-11-01T09:34:28.899Z,9.78
2022-11-01T09:36:55.414Z,9.93
2022-11-01T09:39:22.134Z,10.08
2022-11-01T09:41:53.059Z,10.13
2022-11-01T09:44:31.473Z,10.04
2022-11-01T09:47:05.174Z,10.07
2022-11-01T09:49:35.622Z,9.88
2022-11-01T09:52:02.146Z,9.91
2022-11-01T09:54:28.669Z,9.90
2022-11-01T09:57:15.526Z,9.90
2022-11-01T09:59:57.128Z,9.93
2022-11-01T10:02:32.522Z,10.07
2022-11-01T10:05:30.687Z,10.25
2022-11-01T10:08:19.658Z,10.28
2022-11-01T10:11:04.372Z,10.31
2022-11-01T10:13:32.258Z,10.29
2022-11-01T10:16:09.464Z,10.46
2022-11-01T10:19:01.890Z,10.34
2022-11-01T10:21:32.650Z,10.27
2022-11-01T10:24:02.529Z,10.31
2022-11-01T10:26:30.800Z,10.25
2022-11-01T10:29:04.772Z,10.03
2022-11-01T10:31:39.181Z,9.81
2022-11-01T10:34:18.566Z,9.88
2022-11-01T10:36:46.829Z,9.86
2022-11-01T10:42:21.885Z,10.09
2022-11-01T10:44:55.142Z,10.22
2022-11-01T10:47:23.830Z,10.09
2022-11-01T10:50:09.795Z,10.25
2022-11-01T10:52:48.891Z,10.14
2022-11-01T10:55:57.898Z,10.21
2022-11-01T10:58:47.210Z,10.49
2022-11-01T11:01:19.870Z,10.73
2022-11-01T11:03:48.228Z,10.89
2022-11-01T11:06:18.883Z,11.02
2022-11-01T11:08:50.062Z,11.21
2022-11-01T11:11:18.642Z,11.58
2022-11-01T11:13:53.775Z,11.44
2022-11-01T11:16:30.123Z,11.66
2022-11-01T11:19:21.109Z,11.49
2022-11-01T11:21:49.924Z,11.52
2022-11-01T11:24:21.450Z,11.27
2022-11-01T11:26:54.153Z,11.62
2022-11-01T11:29:41.271Z,11.60
2022-11-01T11:32:16.350Z,11.89
2022-11-01T11:34:43.294Z,12.02
2022-11-01T11:37:22.835Z,12.04
2022-11-01T11:40:21.241Z,11.94
2022-11-01T11:42:52.338Z,11.91
2022-11-01T11:45:18.692Z,11.76
2022-11-01T11:47:47.873Z,11.68
2022-11-01T11:50:24.356Z,11.82
2022-11-01T11:52:57.914Z,11.88
2022-11-01T11:55:43.652Z,11.67
2022-11-01T11:58:42.116Z,11.86
2022-11-01T12:01:12.774Z,11.74
2022-11-01T12:04:09.914Z,11.76
2022-11-01T12:06:43.784Z,11.62
2022-11-01T12:09:43.882Z,11.48
2022-11-01T12:12:16.562Z,11.54
2022-11-01T12:14:43.034Z,11.63
2022-11-01T12:17:34.010Z,11.53
2022-11-01T12:20:01.266Z,11.53
2022-11-01T12:22:33.555Z,11.39
2022-11-01T12:25:05.167Z,11.61
2022-11-01T12:27:34.417Z,11.48
2022-11-01T12:30:19.588Z,11.67
2022-11-01T12:32:52.523Z,11.59
2022-11-01T12:35:36.595Z,11.66
2022-11-01T12:38:11.884Z,11.73
2022-11-01T12:40:42.184Z,12.03
2022-11-01T12:43:27.788Z,12.21
2022-11-01T12:46:01.050Z,12.18
2022-11-01T12:48:36.450Z,12.21
2022-11-01T12:51:16.938Z,12.19
2022-11-01T12:54:00.056Z,12.62
2022-11-01T12:56:27.045Z,12.88
2022-11-01T12:58:56.568Z,12.88
2022-11-01T13:01:23.485Z,13.17
2022-11-01T13:04:07.848Z,13.35
2022-11-01T13:06:43.471Z,13.35
2022-11-01T13:09:22.105Z,13.67
2022-11-01T13:11:55.590Z,14.01
2022-11-01T13:14:42.467Z,13.63
2022-11-01T13:17:18.426Z,14.00
2022-11-01T13:19:57.223Z,14.09
2022-11-01T13:22:33.689Z,14.13
2022-11-01T13:25:14.768Z,14.49
2022-11-01T13:27:56.169Z,14.35
2022-11-01T13:30:23.098Z,14.31
2022-11-01T13:32:59.298Z,14.13
2022-11-01T13:35:44.831Z,13.64
2022-11-01T13:38:17.498Z,13.27
2022-11-01T13:41:09.905Z,12.85
2022-11-01T13:43:52.110Z,14.25
2022-11-01T13:46:44.251Z,15.18
2022-11-01T13:49:10.506Z,15.56
2022-11-01T13:51:42.420Z,15.67
2022-11-01T13:54:27.125Z,15.20
2022-11-01T13:57:12.190Z,14.87
2022-11-01T13:59:44.487Z,14.77
2022-11-01T14:02:23.557Z,15.12
2022-11-01T14:05:10.501Z,14.80
2022-11-01T14:07:43.027Z,15.00
2022-11-01T14:10:30.399Z,14.73
2022-11-01T14:12:56.740Z,14.49
2022-11-01T14:15:28.595Z,14.72
2022-11-01T14:18:07.568Z,14.89
2022-11-01T14:20:46.113Z,14.72
2022-11-01T14:23:31.672Z,14.93
2022-11-01T14:26:20.143Z,15.17
2022-11-01T14:28:54.114Z,15.27
2022-11-01T14:31:24.722Z,14.72
2022-11-01T14:33:54.888Z,14.03
2022-11-01T14:36:29.010Z,13.90
2022-11-01T14:39:16.356Z,13.91
2022-11-01T14:41:44.717Z,13.09
2022-11-01T14:44:34.743Z,12.91
2022-11-01T14:47:08.020Z,12.48
2022-11-01T14:49:40.038Z,12.22
2022-11-01T14:52:31.896Z,11.95
2022-11-01T14:55:12.555Z,11.80
2022-11-01T14:57:39.850Z,11.74
2022-11-01T15:00:26.527Z,11.66
2022-11-01T15:02:53.146Z,11.46
2022-11-01T15:05:19.760Z,11.40
2022-11-01T15:07:56.819Z,11.34
2022-11-01T15:10:23.662Z,11.21
2022-11-01T15:12:57.577Z,11.19
2022-11-01T15:15:27.916Z,11.19
2022-11-01T15:18:01.959Z,11.16
2022-11-01T15:20:40.406Z,11.28
2022-11-01T15:23:15.109Z,11.26
2022-11-01T15:25:43.247Z,11.22
2022-11-01T15:28:21.272Z,11.29
2022-11-01T15:30:58.225Z,11.20
2022-11-01T15:33:28.014Z,11.14
2022-11-01T15:35:57.858Z,11.20
2022-11-01T15:38:24.354Z,11.17
2022-11-01T15:40:51.001Z,11.08
2022-11-01T15:43:20.419Z,11.04
2022-11-01T15:45:51.701Z,11.00
2022-11-01T15:48:22.597Z,11.02
2022-11-01T15:50:53.355Z,11.08
2022-11-01T15:53:22.812Z,11.09
2022-11-01T15:56:01.018Z,11.11
2022-11-01T15:58:38.485Z,11.06
2022-11-01T16:01:13.514Z,11.07
2022-11-01T16:03:58.893Z,11.05
2022-11-01T16:06:39.370Z,11.04
2022-11-01T16:09:26.470Z,11.01
2022-11-01T16:11:57.362Z,11.01
2022-11-01T16:14:37.147Z,10.97
2022-11-01T16:17:23.976Z,10.92
2022-11-01T16:19:52.624Z,10.93
2022-11-01T16:22:30.051Z,10.90
2022-11-01T16:25:06.698Z,10.87
2022-11-01T16:27:37.366Z,10.78
2022-11-01T16:30:10.056Z,10.79
2022-11-01T16:32:36.852Z,10.70
2022-11-01T16:35:30.625Z,10.77
2022-11-01T16:37:57.128Z,10.81
2022-11-01T16:40:30.777Z,10.72
2022-11-01T16:42:59.355Z,10.74
2022-11-01T16:45:25.907Z,10.67
2022-11-01T16:47:57.914Z,10.73
2022-11-01T16:50:24.724Z,10.66
2022-11-01T16:52:51.055Z,10.71
2022-11-01T16:55:17.498Z,10.60
2022-11-01T16:57:45.845Z,10.62
2022-11-01T17:00:14.988Z,10.58
2022-11-01T17:02:42.015Z,10.54
2022-11-01T17:05:18.699Z,10.55
2022-11-01T17:07:45.765Z,10.47
2022-11-01T17:10:25.559Z,10.55
2022-11-01T17:12:53.822Z,10.52
2022-11-01T17:15:20.430Z,10.55
2022-11-01T17:17:48.404Z,10.55
2022-11-01T17:20:22.636Z,10.64
2022-11-01T17:22:51.742Z,10.62
2022-11-01T17:25:21.895Z,10.64
2022-11-01T17:27:51.095Z,10.59
2022-11-01T17:30:18.756Z,10.49
2022-11-01T17:32:45.286Z,10.55
2022-11-01T17:35:11.802Z,10.49
2022-11-01T17:37:39.866Z,10.52
2022-11-01T17:40:18.904Z,10.49
2022-11-01T17:42:45.552Z,10.46
2022-11-01T17:45:13.380Z,10.45
2022-11-01T17:47:40.205Z,10.34
2022-11-01T17:50:10.244Z,10.32
2022-11-01T17:52:36.631Z,10.34
2022-11-01T17:55:02.996Z,10.37
2022-11-01T17:57:29.326Z,10.39
2022-11-01T17:59:56.369Z,10.39
2022-11-01T18:02:24.286Z,10.42
2022-11-01T18:04:50.876Z,10.42
2022-11-01T18:07:17.485Z,10.39
2022-11-01T18:09:43.853Z,10.37
2022-11-01T18:12:34.692Z,10.36
2022-11-01T18:15:19.261Z,10.48
2022-11-01T18:18:01.314Z,10.40
2022-11-01T18:20:42.572Z,10.33
2022-11-01T18:23:13.617Z,10.34
2022-11-01T18:25:50.324Z,10.28
2022-11-01T18:28:19.294Z,10.28
2022-11-01T18:30:55.206Z,10.39
2022-11-01T18:33:44.562Z,10.43
2022-11-01T18:36:32.642Z,10.40
2022-11-01T18:39:33.033Z,10.36
2022-11-01T18:42:01.206Z,10.38
2022-11-01T18:44:27.632Z,10.33
2022-11-01T18:47:00.424Z,10.32
2022-11-01T18:49:27.889Z,10.33
2022-11-01T18:51:55.253Z,10.43
2022-11-01T18:54:27.262Z,10.32
2022-11-01T18:56:59.721Z,10.36
2022-11-01T18:59:31.926Z,10.31
2022-11-01T19:02:12.266Z,10.33
2022-11-01T19:04:42.249Z,10.29
2022-11-01T19:07:20.491Z,10.34
2022-11-01T19:09:53.510Z,10.32
2022-11-01T19:12:27.070Z,10.31
2022-11-01T19:15:28.780Z,10.40
2022-11-01T19:17:58.739Z,10.48
2022-11-01T19:20:31.716Z,10.45
2022-11-01T19:23:01.304Z,10.48
2022-11-01T19:25:32.909Z,10.48
2022-11-01T19:28:12.425Z,10.47
2022-11-01T19:30:39.103Z,10.46
2022-11-01T19:33:14.325Z,10.50
2022-11-01T19:35:41.513Z,10.51
2022-11-01T19:38:15.192Z,10.49
2022-11-01T19:40:42.309Z,10.40
2022-11-01T19:43:13.725Z,10.46
2022-11-01T19:45:54.157Z,10.43
2022-11-01T19:48:23.505Z,10.46
2022-11-01T19:50:49.999Z,10.39
2022-11-01T19:53:19.392Z,10.35
2022-11-01T19:56:12.622Z,10.31
2022-11-01T19:58:54.947Z,10.24
2022-11-01T20:01:34.846Z,10.21
2022-11-01T20:04:04.457Z,10.25
2022-11-01T20:06:35.894Z,10.28
2022-11-01T20:09:15.225Z,10.19
2022-11-01T20:11:41.647Z,10.19
2022-11-01T20:14:08.084Z,10.20
2022-11-01T20:16:34.511Z,10.23
2022-11-01T20:19:00.885Z,10.27
2022-11-01T20:21:27.231Z,10.30
2022-11-01T20:23:54.308Z,10.23
2022-11-01T20:26:20.710Z,10.25
2022-11-01T20:28:47.099Z,10.11
2022-11-01T20:31:13.537Z,10.07
2022-11-01T20:33:40.689Z,10.15
2022-11-01T20:36:11.153Z,10.17
2022-11-01T20:38:38.814Z,10.15
2022-11-01T20:41:05.594Z,10.19
2022-11-01T20:43:32.145Z,10.17
2022-11-01T20:45:58.545Z,10.13
2022-11-01T20:48:25.662Z,10.18
2022-11-01T20:50:53.571Z,10.18
2022-11-01T20:53:19.938Z,10.19
2022-11-01T20:55:46.391Z,10.22
2022-11-01T20:58:14.052Z,10.29
2022-11-01T21:00:40.526Z,10.28
2022-11-01T21:03:17.473Z,10.29
2022-11-01T21:05:45.677Z,10.28
2022-11-01T21:08:22.636Z,10.31
2022-11-01T21:10:58.664Z,10.16
2022-11-01T21:13:34.765Z,10.13
2022-11-01T21:16:03.346Z,10.17
2022-11-01T21:18:43.504Z,10.07
2022-11-01T21:21:15.796Z,10.06
2022-11-01T21:23:46.097Z,10.06
2022-11-01T21:26:18.992Z,9.98
2022-11-01T21:28:54.538Z,9.94
2022-11-01T21:31:27.181Z,9.96
2022-11-01T21:34:01.283Z,10.03
2022-11-01T21:36:32.648Z,10.02
2022-11-01T21:39:01.329Z,10.06
2022-11-01T21:41:45.856Z,10.05
2022-11-01T21:44:18.230Z,10.09
2022-11-01T21:46:51.025Z,10.09
2022-11-01T21:49:31.818Z,10.03
2022-11-01T21:52:00.480Z,9.97
2022-11-01T21:54:29.367Z,9.90
2022-11-01T21:56:56.862Z,9.93
2022-11-01T21:59:24.112Z,9.98
2022-11-01T22:01:50.708Z,10.00
2022-11-01T22:04:17.333Z,9.95
2022-11-01T22:06:44.669Z,9.85
2022-11-01T22:09:11.426Z,9.86
2022-11-01T22:11:38.066Z,9.85
2022-11-01T22:14:05.213Z,9.86
2022-11-01T22:16:31.782Z,9.86
2022-11-01T22:18:58.388Z,9.82
2022-11-01T22:21:24.883Z,9.73
2022-11-01T22:23:51.587Z,9.69
2022-11-01T22:26:18.115Z,9.63
2022-11-01T22:28:44.695Z,9.64
2022-11-01T22:31:11.136Z,9.67
2022-11-01T22:33:37.714Z,9.63
2022-11-01T22:36:06.851Z,9.66
2022-11-01T22:38:41.716Z,9.59
2022-11-01T22:41:32.756Z,9.67
2022-11-01T22:44:03.835Z,9.52
2022-11-01T22:46:40.809Z,9.55
2022-11-01T22:49:14.969Z,9.52
2022-11-01T22:51:44.978Z,9.63
2022-11-01T22:54:33.586Z,9.62
2022-11-01T22:57:14.279Z,9.61
2022-11-01T22:59:50.803Z,9.51
2022-11-01T23:02:31.551Z,9.41
2022-11-01T23:05:18.421Z,9.40
2022-11-01T23:07:47.520Z,9.36
2022-11-01T23:10:34.756Z,9.39
2022-11-01T23:13:30.314Z,9.52
2022-11-01T23:16:01.877Z,9.54
2022-11-01T23:18:33.522Z,9.53
2022-11-01T23:21:02.863Z,9.56
2022-11-01T23:23:29.304Z,9.46
2022-11-01T23:25:58.987Z,9.46
2022-11-01T23:28:27.069Z,9.44
2022-11-01T23:30:54.769Z,9.48
2022-11-01T23:33:23.027Z,9.51
2022-11-01T23:35:53.679Z,9.54
2022-11-01T23:38:25.469Z,9.58
2022-11-01T23:40:53.650Z,9.60
2022-11-01T23:43:23.576Z,9.55
2022-11-01T23:45:50.976Z,9.53
2022-11-01T23:48:19.226Z,9.53
2022-11-01T23:50:45.692Z,9.53
2022-11-01T23:53:16.029Z,9.54
2022-11-01T23:55:48.668Z,9.51
2022-11-01T23:58:26.780Z,9.49
